sensor_id;sensor_type;location;lat;lon;timestamp;P1;durP1;ratioP1;P2;durP2;ratioP2
69894;SDS011;57172;52.034;5.090;2022-10-18T00:00:01;26.00;;;12.20;;
69894;SDS011;57172;52.034;5.090;2022-10-18T00:02:29;18.27;;;11.43;;
69894;SDS011;57172;52.034;5.090;2022-10-18T00:04:56;23.23;;;12.10;;
69894;SDS011;57172;52.034;5.090;2022-10-18T00:07:23;23.67;;;11.30;;
69894;SDS011;57172;52.034;5.090;2022-10-18T00:09:50;22.05;;;12.18;;
69894;SDS011;57172;52.034;5.090;2022-10-18T00:12:17;23.93;;;11.77;;
69894;SDS011;57172;52.034;5.090;2022-10-18T00:14:44;20.85;;;12.05;;
69894;SDS011;57172;52.034;5.090;2022-10-18T00:17:15;21.52;;;10.85;;
69894;SDS011;57172;52.034;5.090;2022-10-18T00:19:41;20.65;;;11.05;;
69894;SDS011;57172;52.034;5.090;2022-10-18T00:22:08;22.27;;;11.38;;
69894;SDS011;57172;52.034;5.090;2022-10-18T00:24:35;20.97;;;11.00;;
69894;SDS011;57172;52.034;5.090;2022-10-18T00:27:02;22.38;;;11.15;;
69894;SDS011;57172;52.034;5.090;2022-10-18T00:29:29;34.38;;;12.02;;
69894;SDS011;57172;52.034;5.090;2022-10-18T00:31:56;24.17;;;10.95;;
69894;SDS011;57172;52.034;5.090;2022-10-18T00:34:22;22.38;;;11.68;;
69894;SDS011;57172;52.034;5.090;2022-10-18T00:36:49;17.23;;;10.20;;
69894;SDS011;57172;52.034;5.090;2022-10-18T00:39:17;21.75;;;10.45;;
69894;SDS011;57172;52.034;5.090;2022-10-18T00:41:45;22.08;;;10.30;;
69894;SDS011;57172;52.034;5.090;2022-10-18T00:46:44;35.33;;;10.98;;
69894;SDS011;57172;52.034;5.090;2022-10-18T00:49:47;45.20;;;11.27;;
69894;SDS011;57172;52.034;5.090;2022-10-18T00:52:09;18.52;;;10.18;;
69894;SDS011;57172;52.034;5.090;2022-10-18T00:54:41;17.75;;;9.60;;
69894;SDS011;57172;52.034;5.090;2022-10-18T00:57:09;17.42;;;9.93;;
69894;SDS011;57172;52.034;5.090;2022-10-18T00:59:37;23.20;;;10.68;;
69894;SDS011;57172;52.034;5.090;2022-10-18T01:02:05;17.77;;;10.70;;
69894;SDS011;57172;52.034;5.090;2022-10-18T01:04:33;59.20;;;13.20;;
69894;SDS011;57172;52.034;5.090;2022-10-18T01:12:43;20.98;;;10.20;;
69894;SDS011;57172;52.034;5.090;2022-10-18T01:29:28;29.93;;;11.30;;
69894;SDS011;57172;52.034;5.090;2022-10-18T01:32:08;89.15;;;12.85;;
69894;SDS011;57172;52.034;5.090;2022-10-18T01:34:44;24.20;;;10.82;;
69894;SDS011;57172;52.034;5.090;2022-10-18T01:37:15;36.13;;;11.13;;
69894;SDS011;57172;52.034;5.090;2022-10-18T01:39:45;15.57;;;9.73;;
69894;SDS011;57172;52.034;5.090;2022-10-18T01:42:13;19.27;;;9.40;;
69894;SDS011;57172;52.034;5.090;2022-10-18T01:44:45;17.52;;;9.25;;
69894;SDS011;57172;52.034;5.090;2022-10-18T01:47:13;18.60;;;9.63;;
69894;SDS011;57172;52.034;5.090;2022-10-18T01:49:41;16.15;;;9.15;;
69894;SDS011;57172;52.034;5.090;2022-10-18T01:52:11;46.47;;;11.13;;
69894;SDS011;57172;52.034;5.090;2022-10-18T01:54:40;39.53;;;10.23;;
69894;SDS011;57172;52.034;5.090;2022-10-18T02:00:28;22.40;;;9.60;;
69894;SDS011;57172;52.034;5.090;2022-10-18T02:03:15;25.77;;;10.07;;
69894;SDS011;57172;52.034;5.090;2022-10-18T02:06:07;29.90;;;9.43;;
69894;SDS011;57172;52.034;5.090;2022-10-18T02:08:49;32.97;;;9.90;;
69894;SDS011;57172;52.034;5.090;2022-10-18T02:11:18;15.13;;;8.98;;
69894;SDS011;57172;52.034;5.090;2022-10-18T02:16:19;20.27;;;9.18;;
69894;SDS011;57172;52.034;5.090;2022-10-18T02:21:25;20.57;;;9.40;;
69894;SDS011;57172;52.034;5.090;2022-10-18T02:23:54;25.58;;;9.52;;
69894;SDS011;57172;52.034;5.090;2022-10-18T02:26:24;19.02;;;9.30;;
69894;SDS011;57172;52.034;5.090;2022-10-18T02:28:51;16.83;;;9.13;;
69894;SDS011;57172;52.034;5.090;2022-10-18T02:33:49;37.20;;;9.53;;
69894;SDS011;57172;52.034;5.090;2022-10-18T02:38:53;66.72;;;11.23;;
69894;SDS011;57172;52.034;5.090;2022-10-18T02:41:24;18.35;;;8.98;;
69894;SDS011;57172;52.034;5.090;2022-10-18T02:43:52;35.65;;;10.13;;
69894;SDS011;57172;52.034;5.090;2022-10-18T02:46:19;44.13;;;9.00;;
69894;SDS011;57172;52.034;5.090;2022-10-18T02:48:46;33.63;;;8.90;;
69894;SDS011;57172;52.034;5.090;2022-10-18T02:51:13;25.13;;;8.98;;
69894;SDS011;57172;52.034;5.090;2022-10-18T02:53:40;31.60;;;9.32;;
69894;SDS011;57172;52.034;5.090;2022-10-18T02:56:07;21.10;;;8.77;;
69894;SDS011;57172;52.034;5.090;2022-10-18T02:58:34;16.07;;;9.10;;
69894;SDS011;57172;52.034;5.090;2022-10-18T03:01:01;30.27;;;9.20;;
69894;SDS011;57172;52.034;5.090;2022-10-18T03:03:28;19.67;;;8.80;;
69894;SDS011;57172;52.034;5.090;2022-10-18T03:05:55;19.02;;;8.32;;
69894;SDS011;57172;52.034;5.090;2022-10-18T03:08:22;15.82;;;8.38;;
69894;SDS011;57172;52.034;5.090;2022-10-18T03:10:49;47.73;;;9.90;;
69894;SDS011;57172;52.034;5.090;2022-10-18T03:13:15;29.42;;;10.27;;
69894;SDS011;57172;52.034;5.090;2022-10-18T03:15:42;16.73;;;8.93;;
69894;SDS011;57172;52.034;5.090;2022-10-18T03:18:09;15.07;;;8.00;;
69894;SDS011;57172;52.034;5.090;2022-10-18T03:20:36;12.35;;;7.78;;
69894;SDS011;57172;52.034;5.090;2022-10-18T03:23:03;16.87;;;7.90;;
69894;SDS011;57172;52.034;5.090;2022-10-18T03:25:30;17.73;;;8.63;;
69894;SDS011;57172;52.034;5.090;2022-10-18T03:27:57;13.48;;;8.10;;
69894;SDS011;57172;52.034;5.090;2022-10-18T03:30:24;13.23;;;7.95;;
69894;SDS011;57172;52.034;5.090;2022-10-18T03:32:51;17.45;;;9.38;;
69894;SDS011;57172;52.034;5.090;2022-10-18T03:35:19;13.20;;;8.50;;
69894;SDS011;57172;52.034;5.090;2022-10-18T03:37:46;12.02;;;7.75;;
69894;SDS011;57172;52.034;5.090;2022-10-18T03:40:13;13.25;;;7.97;;
69894;SDS011;57172;52.034;5.090;2022-10-18T03:42:40;13.10;;;7.50;;
69894;SDS011;57172;52.034;5.090;2022-10-18T03:45:07;17.42;;;8.18;;
69894;SDS011;57172;52.034;5.090;2022-10-18T03:47:34;108.17;;;10.47;;
69894;SDS011;57172;52.034;5.090;2022-10-18T03:50:01;28.88;;;8.85;;
69894;SDS011;57172;52.034;5.090;2022-10-18T03:52:28;79.97;;;10.77;;
69894;SDS011;57172;52.034;5.090;2022-10-18T03:54:55;20.42;;;8.68;;
69894;SDS011;57172;52.034;5.090;2022-10-18T03:57:22;37.33;;;9.40;;
69894;SDS011;57172;52.034;5.090;2022-10-18T03:59:49;28.67;;;8.83;;
69894;SDS011;57172;52.034;5.090;2022-10-18T04:02:16;22.42;;;8.82;;
69894;SDS011;57172;52.034;5.090;2022-10-18T04:04:43;19.35;;;8.70;;
69894;SDS011;57172;52.034;5.090;2022-10-18T04:07:09;29.95;;;8.50;;
69894;SDS011;57172;52.034;5.090;2022-10-18T04:09:36;36.75;;;9.10;;
69894;SDS011;57172;52.034;5.090;2022-10-18T04:12:03;44.00;;;9.17;;
69894;SDS011;57172;52.034;5.090;2022-10-18T04:14:30;19.27;;;8.68;;
69894;SDS011;57172;52.034;5.090;2022-10-18T04:16:57;16.08;;;8.60;;
69894;SDS011;57172;52.034;5.090;2022-10-18T04:19:24;28.20;;;8.88;;
69894;SDS011;57172;52.034;5.090;2022-10-18T04:21:50;33.78;;;8.82;;
69894;SDS011;57172;52.034;5.090;2022-10-18T04:24:17;38.17;;;9.30;;
69894;SDS011;57172;52.034;5.090;2022-10-18T04:26:44;26.05;;;9.10;;
69894;SDS011;57172;52.034;5.090;2022-10-18T04:29:11;47.30;;;9.65;;
69894;SDS011;57172;52.034;5.090;2022-10-18T04:31:38;53.85;;;9.05;;
69894;SDS011;57172;52.034;5.090;2022-10-18T04:34:05;58.00;;;9.32;;
69894;SDS011;57172;52.034;5.090;2022-10-18T04:36:32;21.43;;;8.43;;
69894;SDS011;57172;52.034;5.090;2022-10-18T04:38:58;29.25;;;8.80;;
69894;SDS011;57172;52.034;5.090;2022-10-18T04:41:25;74.57;;;10.10;;
69894;SDS011;57172;52.034;5.090;2022-10-18T04:43:52;36.00;;;8.70;;
69894;SDS011;57172;52.034;5.090;2022-10-18T04:46:19;35.95;;;8.63;;
69894;SDS011;57172;52.034;5.090;2022-10-18T04:48:46;48.90;;;8.63;;
69894;SDS011;57172;52.034;5.090;2022-10-18T04:51:12;16.70;;;8.07;;
69894;SDS011;57172;52.034;5.090;2022-10-18T04:53:39;13.00;;;7.88;;
69894;SDS011;57172;52.034;5.090;2022-10-18T04:56:06;20.80;;;7.90;;
69894;SDS011;57172;52.034;5.090;2022-10-18T04:58:33;26.85;;;8.50;;
69894;SDS011;57172;52.034;5.090;2022-10-18T05:01:03;18.60;;;7.50;;
69894;SDS011;57172;52.034;5.090;2022-10-18T05:03:31;22.30;;;7.72;;
69894;SDS011;57172;52.034;5.090;2022-10-18T05:05:58;27.20;;;8.15;;
69894;SDS011;57172;52.034;5.090;2022-10-18T05:08:28;23.85;;;7.78;;
69894;SDS011;57172;52.034;5.090;2022-10-18T05:10:56;22.77;;;8.00;;
69894;SDS011;57172;52.034;5.090;2022-10-18T05:13:23;31.53;;;8.30;;
69894;SDS011;57172;52.034;5.090;2022-10-18T05:15:50;37.88;;;8.57;;
69894;SDS011;57172;52.034;5.090;2022-10-18T05:18:17;39.00;;;8.57;;
69894;SDS011;57172;52.034;5.090;2022-10-18T05:20:44;32.10;;;7.93;;
69894;SDS011;57172;52.034;5.090;2022-10-18T05:23:11;24.55;;;7.95;;
69894;SDS011;57172;52.034;5.090;2022-10-18T05:25:38;23.60;;;8.40;;
69894;SDS011;57172;52.034;5.090;2022-10-18T05:28:06;42.90;;;8.73;;
69894;SDS011;57172;52.034;5.090;2022-10-18T05:30:52;25.27;;;8.00;;
69894;SDS011;57172;52.034;5.090;2022-10-18T05:33:19;55.70;;;9.07;;
69894;SDS011;57172;52.034;5.090;2022-10-18T05:35:46;39.00;;;8.05;;
69894;SDS011;57172;52.034;5.090;2022-10-18T05:38:12;52.07;;;9.03;;
69894;SDS011;57172;52.034;5.090;2022-10-18T05:40:39;44.70;;;8.65;;
69894;SDS011;57172;52.034;5.090;2022-10-18T05:43:06;57.15;;;9.77;;
69894;SDS011;57172;52.034;5.090;2022-10-18T05:45:33;45.10;;;9.57;;
69894;SDS011;57172;52.034;5.090;2022-10-18T05:47:59;37.15;;;8.95;;
69894;SDS011;57172;52.034;5.090;2022-10-18T05:50:27;27.40;;;8.67;;
69894;SDS011;57172;52.034;5.090;2022-10-18T05:52:54;63.30;;;9.80;;
69894;SDS011;57172;52.034;5.090;2022-10-18T05:55:37;69.88;;;10.93;;
69894;SDS011;57172;52.034;5.090;2022-10-18T05:58:04;57.58;;;10.68;;
69894;SDS011;57172;52.034;5.090;2022-10-18T06:00:31;44.15;;;9.75;;
69894;SDS011;57172;52.034;5.090;2022-10-18T06:02:57;46.77;;;9.47;;
69894;SDS011;57172;52.034;5.090;2022-10-18T06:05:26;33.28;;;10.00;;
69894;SDS011;57172;52.034;5.090;2022-10-18T06:07:53;32.08;;;9.23;;
69894;SDS011;57172;52.034;5.090;2022-10-18T06:10:21;39.50;;;9.00;;
69894;SDS011;57172;52.034;5.090;2022-10-18T06:12:48;64.00;;;9.90;;
69894;SDS011;57172;52.034;5.090;2022-10-18T06:15:15;105.53;;;9.60;;
69894;SDS011;57172;52.034;5.090;2022-10-18T06:17:42;143.57;;;9.20;;
69894;SDS011;57172;52.034;5.090;2022-10-18T06:20:09;97.22;;;8.40;;
69894;SDS011;57172;52.034;5.090;2022-10-18T06:22:35;62.22;;;7.82;;
69894;SDS011;57172;52.034;5.090;2022-10-18T06:25:02;87.50;;;7.97;;
69894;SDS011;57172;52.034;5.090;2022-10-18T06:27:29;79.60;;;7.73;;
69894;SDS011;57172;52.034;5.090;2022-10-18T06:29:59;63.33;;;6.72;;
69894;SDS011;57172;52.034;5.090;2022-10-18T06:32:25;58.38;;;7.30;;
69894;SDS011;57172;52.034;5.090;2022-10-18T06:34:52;66.97;;;7.20;;
69894;SDS011;57172;52.034;5.090;2022-10-18T06:37:19;44.70;;;6.85;;
69894;SDS011;57172;52.034;5.090;2022-10-18T06:39:46;81.30;;;6.87;;
69894;SDS011;57172;52.034;5.090;2022-10-18T06:42:13;54.67;;;6.40;;
69894;SDS011;57172;52.034;5.090;2022-10-18T06:44:42;48.95;;;6.22;;
69894;SDS011;57172;52.034;5.090;2022-10-18T06:47:09;44.33;;;6.20;;
69894;SDS011;57172;52.034;5.090;2022-10-18T06:49:36;57.17;;;6.25;;
69894;SDS011;57172;52.034;5.090;2022-10-18T06:52:03;63.87;;;6.40;;
69894;SDS011;57172;52.034;5.090;2022-10-18T06:54:31;44.42;;;6.30;;
69894;SDS011;57172;52.034;5.090;2022-10-18T06:56:58;73.93;;;7.03;;
69894;SDS011;57172;52.034;5.090;2022-10-18T06:59:24;101.03;;;7.07;;
69894;SDS011;57172;52.034;5.090;2022-10-18T07:01:56;107.85;;;7.60;;
69894;SDS011;57172;52.034;5.090;2022-10-18T07:04:23;52.13;;;6.53;;
69894;SDS011;57172;52.034;5.090;2022-10-18T07:06:53;43.60;;;6.55;;
69894;SDS011;57172;52.034;5.090;2022-10-18T07:09:20;37.92;;;5.82;;
69894;SDS011;57172;52.034;5.090;2022-10-18T07:11:46;33.17;;;5.90;;
69894;SDS011;57172;52.034;5.090;2022-10-18T07:14:13;74.15;;;6.63;;
69894;SDS011;57172;52.034;5.090;2022-10-18T07:16:41;89.63;;;6.70;;
69894;SDS011;57172;52.034;5.090;2022-10-18T07:19:08;78.85;;;5.63;;
69894;SDS011;57172;52.034;5.090;2022-10-18T07:21:35;71.43;;;6.07;;
69894;SDS011;57172;52.034;5.090;2022-10-18T07:24:02;41.45;;;5.32;;
69894;SDS011;57172;52.034;5.090;2022-10-18T07:26:30;44.78;;;5.80;;
69894;SDS011;57172;52.034;5.090;2022-10-18T07:29:00;114.37;;;6.23;;
69894;SDS011;57172;52.034;5.090;2022-10-18T07:31:32;112.13;;;6.03;;
69894;SDS011;57172;52.034;5.090;2022-10-18T07:34:00;52.17;;;5.10;;
69894;SDS011;57172;52.034;5.090;2022-10-18T07:36:32;83.20;;;5.45;;
69894;SDS011;57172;52.034;5.090;2022-10-18T07:38:59;120.10;;;6.10;;
69894;SDS011;57172;52.034;5.090;2022-10-18T07:41:26;50.80;;;5.50;;
69894;SDS011;57172;52.034;5.090;2022-10-18T07:43:54;34.80;;;4.85;;
69894;SDS011;57172;52.034;5.090;2022-10-18T07:46:21;23.20;;;5.10;;
69894;SDS011;57172;52.034;5.090;2022-10-18T07:48:48;67.90;;;6.35;;
69894;SDS011;57172;52.034;5.090;2022-10-18T07:51:16;26.35;;;6.03;;
69894;SDS011;57172;52.034;5.090;2022-10-18T07:53:43;30.40;;;6.60;;
69894;SDS011;57172;52.034;5.090;2022-10-18T07:56:12;13.85;;;5.95;;
69894;SDS011;57172;52.034;5.090;2022-10-18T07:58:49;10.55;;;5.75;;
69894;SDS011;57172;52.034;5.090;2022-10-18T08:01:18;8.23;;;5.05;;
69894;SDS011;57172;52.034;5.090;2022-10-18T08:03:46;13.13;;;5.20;;
69894;SDS011;57172;52.034;5.090;2022-10-18T08:06:14;9.77;;;4.70;;
69894;SDS011;57172;52.034;5.090;2022-10-18T08:08:43;7.63;;;4.45;;
69894;SDS011;57172;52.034;5.090;2022-10-18T08:11:12;9.00;;;4.80;;
69894;SDS011;57172;52.034;5.090;2022-10-18T08:13:40;8.82;;;5.10;;
69894;SDS011;57172;52.034;5.090;2022-10-18T08:16:09;10.98;;;4.97;;
69894;SDS011;57172;52.034;5.090;2022-10-18T08:18:37;8.37;;;4.77;;
69894;SDS011;57172;52.034;5.090;2022-10-18T08:21:04;6.68;;;4.03;;
69894;SDS011;57172;52.034;5.090;2022-10-18T08:23:33;11.05;;;3.97;;
69894;SDS011;57172;52.034;5.090;2022-10-18T08:26:01;6.68;;;3.95;;
69894;SDS011;57172;52.034;5.090;2022-10-18T08:28:36;8.13;;;4.05;;
69894;SDS011;57172;52.034;5.090;2022-10-18T08:31:13;8.03;;;3.80;;
69894;SDS011;57172;52.034;5.090;2022-10-18T08:33:45;8.52;;;3.80;;
69894;SDS011;57172;52.034;5.090;2022-10-18T08:36:13;7.75;;;3.72;;
69894;SDS011;57172;52.034;5.090;2022-10-18T08:38:41;7.43;;;3.78;;
69894;SDS011;57172;52.034;5.090;2022-10-18T08:46:21;8.70;;;3.58;;
69894;SDS011;57172;52.034;5.090;2022-10-18T08:48:48;8.50;;;3.60;;
69894;SDS011;57172;52.034;5.090;2022-10-18T08:51:30;9.98;;;3.58;;
69894;SDS011;57172;52.034;5.090;2022-10-18T08:54:04;7.85;;;3.78;;
69894;SDS011;57172;52.034;5.090;2022-10-18T08:56:38;8.23;;;3.20;;
69894;SDS011;57172;52.034;5.090;2022-10-18T08:59:08;8.32;;;3.40;;
69894;SDS011;57172;52.034;5.090;2022-10-18T09:01:47;9.05;;;3.00;;
69894;SDS011;57172;52.034;5.090;2022-10-18T09:10:04;7.20;;;2.80;;
69894;SDS011;57172;52.034;5.090;2022-10-18T09:13:20;11.38;;;2.92;;
69894;SDS011;57172;52.034;5.090;2022-10-18T09:15:54;7.25;;;2.65;;
69894;SDS011;57172;52.034;5.090;2022-10-18T09:21:23;8.07;;;2.80;;
69894;SDS011;57172;52.034;5.090;2022-10-18T09:24:04;6.83;;;2.50;;
69894;SDS011;57172;52.034;5.090;2022-10-18T09:26:45;8.60;;;2.50;;
69894;SDS011;57172;52.034;5.090;2022-10-18T09:29:25;6.88;;;2.40;;
69894;SDS011;57172;52.034;5.090;2022-10-18T09:32:05;7.63;;;2.15;;
69894;SDS011;57172;52.034;5.090;2022-10-18T09:35:32;10.15;;;2.50;;
69894;SDS011;57172;52.034;5.090;2022-10-18T09:37:49;6.53;;;2.30;;
69894;SDS011;57172;52.034;5.090;2022-10-18T09:40:24;9.38;;;2.20;;
69894;SDS011;57172;52.034;5.090;2022-10-18T09:42:54;8.07;;;2.20;;
69894;SDS011;57172;52.034;5.090;2022-10-18T09:45:28;9.30;;;2.13;;
69894;SDS011;57172;52.034;5.090;2022-10-18T09:50:31;8.30;;;2.03;;
69894;SDS011;57172;52.034;5.090;2022-10-18T09:55:40;6.32;;;1.90;;
69894;SDS011;57172;52.034;5.090;2022-10-18T09:58:19;6.25;;;1.83;;
69894;SDS011;57172;52.034;5.090;2022-10-18T10:00:48;6.68;;;1.70;;
69894;SDS011;57172;52.034;5.090;2022-10-18T10:03:17;7.73;;;2.17;;
69894;SDS011;57172;52.034;5.090;2022-10-18T10:05:44;6.57;;;1.67;;
69894;SDS011;57172;52.034;5.090;2022-10-18T10:08:11;7.57;;;1.80;;
69894;SDS011;57172;52.034;5.090;2022-10-18T10:10:39;11.95;;;2.83;;
69894;SDS011;57172;52.034;5.090;2022-10-18T10:13:16;7.93;;;1.50;;
69894;SDS011;57172;52.034;5.090;2022-10-18T10:15:55;8.27;;;1.60;;
69894;SDS011;57172;52.034;5.090;2022-10-18T10:18:28;6.55;;;1.73;;
69894;SDS011;57172;52.034;5.090;2022-10-18T10:21:04;7.80;;;1.60;;
69894;SDS011;57172;52.034;5.090;2022-10-18T10:23:38;9.10;;;1.80;;
69894;SDS011;57172;52.034;5.090;2022-10-18T10:28:53;6.10;;;1.50;;
69894;SDS011;57172;52.034;5.090;2022-10-18T10:31:29;6.45;;;1.50;;
69894;SDS011;57172;52.034;5.090;2022-10-18T10:33:58;6.47;;;1.83;;
69894;SDS011;57172;52.034;5.090;2022-10-18T10:36:45;7.38;;;1.65;;
69894;SDS011;57172;52.034;5.090;2022-10-18T10:39:18;8.68;;;1.65;;
69894;SDS011;57172;52.034;5.090;2022-10-18T10:41:56;5.50;;;1.50;;
69894;SDS011;57172;52.034;5.090;2022-10-18T10:44:29;7.05;;;1.63;;
69894;SDS011;57172;52.034;5.090;2022-10-18T10:47:00;5.30;;;1.50;;
69894;SDS011;57172;52.034;5.090;2022-10-18T10:52:06;6.57;;;1.70;;
69894;SDS011;57172;52.034;5.090;2022-10-18T10:54:59;6.87;;;1.73;;
69894;SDS011;57172;52.034;5.090;2022-10-18T10:57:49;8.05;;;1.60;;
69894;SDS011;57172;52.034;5.090;2022-10-18T11:03:12;5.25;;;1.45;;
69894;SDS011;57172;52.034;5.090;2022-10-18T11:05:54;5.47;;;1.58;;
69894;SDS011;57172;52.034;5.090;2022-10-18T11:08:24;7.03;;;1.70;;
69894;SDS011;57172;52.034;5.090;2022-10-18T11:13:49;5.30;;;1.40;;
69894;SDS011;57172;52.034;5.090;2022-10-18T11:16:52;7.80;;;1.77;;
69894;SDS011;57172;52.034;5.090;2022-10-18T11:22:05;8.13;;;1.50;;
69894;SDS011;57172;52.034;5.090;2022-10-18T11:24:39;6.00;;;1.38;;
69894;SDS011;57172;52.034;5.090;2022-10-18T11:27:13;7.45;;;1.40;;
69894;SDS011;57172;52.034;5.090;2022-10-18T11:43:09;7.65;;;1.60;;
69894;SDS011;57172;52.034;5.090;2022-10-18T11:48:24;7.60;;;1.50;;
69894;SDS011;57172;52.034;5.090;2022-10-18T12:05:16;4.38;;;1.50;;
69894;SDS011;57172;52.034;5.090;2022-10-18T12:07:54;5.13;;;1.48;;
69894;SDS011;57172;52.034;5.090;2022-10-18T12:10:28;5.63;;;1.60;;
69894;SDS011;57172;52.034;5.090;2022-10-18T12:13:22;4.03;;;1.33;;
69894;SDS011;57172;52.034;5.090;2022-10-18T12:16:01;6.67;;;1.43;;
69894;SDS011;57172;52.034;5.090;2022-10-18T12:18:30;5.75;;;1.40;;
69894;SDS011;57172;52.034;5.090;2022-10-18T12:20:58;6.45;;;1.30;;
69894;SDS011;57172;52.034;5.090;2022-10-18T12:23:35;7.22;;;1.38;;
69894;SDS011;57172;52.034;5.090;2022-10-18T12:26:08;7.05;;;1.60;;
69894;SDS011;57172;52.034;5.090;2022-10-18T12:31:20;6.82;;;1.40;;
69894;SDS011;57172;52.034;5.090;2022-10-18T12:42:57;5.30;;;1.47;;
69894;SDS011;57172;52.034;5.090;2022-10-18T12:45:28;6.35;;;1.60;;
69894;SDS011;57172;52.034;5.090;2022-10-18T12:47:59;6.32;;;1.50;;
69894;SDS011;57172;52.034;5.090;2022-10-18T12:50:29;4.15;;;1.33;;
69894;SDS011;57172;52.034;5.090;2022-10-18T12:53:00;6.45;;;1.50;;
69894;SDS011;57172;52.034;5.090;2022-10-18T12:55:38;7.90;;;1.63;;
69894;SDS011;57172;52.034;5.090;2022-10-18T13:16:08;5.18;;;1.50;;
69894;SDS011;57172;52.034;5.090;2022-10-18T13:21:19;7.90;;;1.40;;
69894;SDS011;57172;52.034;5.090;2022-10-18T13:24:07;5.70;;;1.30;;
69894;SDS011;57172;52.034;5.090;2022-10-18T13:35:39;6.27;;;1.50;;
69894;SDS011;57172;52.034;5.090;2022-10-18T13:38:03;4.13;;;1.20;;
69894;SDS011;57172;52.034;5.090;2022-10-18T13:41:16;4.68;;;1.30;;
69894;SDS011;57172;52.034;5.090;2022-10-18T13:46:19;5.63;;;1.30;;
69894;SDS011;57172;52.034;5.090;2022-10-18T13:48:51;6.57;;;1.40;;
69894;SDS011;57172;52.034;5.090;2022-10-18T14:02:33;6.27;;;1.40;;
69894;SDS011;57172;52.034;5.090;2022-10-18T14:16:46;4.60;;;1.20;;
69894;SDS011;57172;52.034;5.090;2022-10-18T14:19:33;8.65;;;1.20;;
69894;SDS011;57172;52.034;5.090;2022-10-18T14:22:12;3.97;;;1.27;;
69894;SDS011;57172;52.034;5.090;2022-10-18T14:24:49;6.32;;;1.35;;
69894;SDS011;57172;52.034;5.090;2022-10-18T14:27:20;5.30;;;1.40;;
69894;SDS011;57172;52.034;5.090;2022-10-18T14:29:48;5.77;;;1.43;;
69894;SDS011;57172;52.034;5.090;2022-10-18T14:32:31;4.53;;;1.23;;
69894;SDS011;57172;52.034;5.090;2022-10-18T14:34:59;6.10;;;1.50;;
69894;SDS011;57172;52.034;5.090;2022-10-18T14:37:50;7.78;;;1.30;;
69894;SDS011;57172;52.034;5.090;2022-10-18T14:40:33;4.80;;;1.45;;
69894;SDS011;57172;52.034;5.090;2022-10-18T14:43:02;5.33;;;1.40;;
69894;SDS011;57172;52.034;5.090;2022-10-18T14:45:35;6.93;;;1.52;;
69894;SDS011;57172;52.034;5.090;2022-10-18T14:50:40;7.25;;;1.60;;
69894;SDS011;57172;52.034;5.090;2022-10-18T14:53:12;4.82;;;1.40;;
69894;SDS011;57172;52.034;5.090;2022-10-18T14:55:51;6.20;;;1.50;;
69894;SDS011;57172;52.034;5.090;2022-10-18T14:58:36;6.70;;;1.65;;
69894;SDS011;57172;52.034;5.090;2022-10-18T15:01:14;6.88;;;1.30;;
69894;SDS011;57172;52.034;5.090;2022-10-18T15:03:43;6.35;;;1.40;;
69894;SDS011;57172;52.034;5.090;2022-10-18T15:06:12;5.28;;;1.42;;
69894;SDS011;57172;52.034;5.090;2022-10-18T15:08:44;5.90;;;1.40;;
69894;SDS011;57172;52.034;5.090;2022-10-18T15:11:14;5.95;;;1.40;;
69894;SDS011;57172;52.034;5.090;2022-10-18T15:13:50;7.90;;;1.60;;
69894;SDS011;57172;52.034;5.090;2022-10-18T15:16:24;5.82;;;1.50;;
69894;SDS011;57172;52.034;5.090;2022-10-18T15:21:53;5.73;;;1.23;;
69894;SDS011;57172;52.034;5.090;2022-10-18T15:24:41;5.65;;;1.40;;
69894;SDS011;57172;52.034;5.090;2022-10-18T15:27:19;7.47;;;1.35;;
69894;SDS011;57172;52.034;5.090;2022-10-18T15:29:56;7.05;;;1.50;;
69894;SDS011;57172;52.034;5.090;2022-10-18T15:32:26;7.22;;;1.67;;
69894;SDS011;57172;52.034;5.090;2022-10-18T15:35:05;5.07;;;1.40;;
69894;SDS011;57172;52.034;5.090;2022-10-18T15:37:36;8.00;;;1.40;;
69894;SDS011;57172;52.034;5.090;2022-10-18T15:42:49;6.18;;;1.52;;
69894;SDS011;57172;52.034;5.090;2022-10-18T15:45:26;8.68;;;1.52;;
69894;SDS011;57172;52.034;5.090;2022-10-18T15:50:41;6.55;;;1.60;;
69894;SDS011;57172;52.034;5.090;2022-10-18T15:55:47;7.45;;;1.58;;
69894;SDS011;57172;52.034;5.090;2022-10-18T15:58:16;5.85;;;1.52;;
69894;SDS011;57172;52.034;5.090;2022-10-18T16:00:51;6.27;;;1.60;;
69894;SDS011;57172;52.034;5.090;2022-10-18T16:03:22;7.28;;;1.67;;
69894;SDS011;57172;52.034;5.090;2022-10-18T16:05:52;4.63;;;1.48;;
69894;SDS011;57172;52.034;5.090;2022-10-18T16:08:30;9.23;;;1.55;;
69894;SDS011;57172;52.034;5.090;2022-10-18T16:11:02;5.90;;;1.60;;
69894;SDS011;57172;52.034;5.090;2022-10-18T16:13:29;6.57;;;1.50;;
69894;SDS011;57172;52.034;5.090;2022-10-18T16:15:55;6.22;;;1.60;;
69894;SDS011;57172;52.034;5.090;2022-10-18T16:18:24;7.40;;;1.65;;
69894;SDS011;57172;52.034;5.090;2022-10-18T16:20:52;6.00;;;1.50;;
69894;SDS011;57172;52.034;5.090;2022-10-18T16:23:20;4.45;;;1.50;;
69894;SDS011;57172;52.034;5.090;2022-10-18T16:25:50;6.53;;;1.80;;
69894;SDS011;57172;52.034;5.090;2022-10-18T16:28:19;4.55;;;1.70;;
69894;SDS011;57172;52.034;5.090;2022-10-18T16:30:59;6.20;;;1.80;;
69894;SDS011;57172;52.034;5.090;2022-10-18T16:33:27;8.20;;;1.75;;
69894;SDS011;57172;52.034;5.090;2022-10-18T16:35:54;7.25;;;1.73;;
69894;SDS011;57172;52.034;5.090;2022-10-18T16:38:29;7.73;;;1.80;;
69894;SDS011;57172;52.034;5.090;2022-10-18T16:41:04;7.00;;;1.83;;
69894;SDS011;57172;52.034;5.090;2022-10-18T16:43:33;10.50;;;1.70;;
69894;SDS011;57172;52.034;5.090;2022-10-18T16:46:00;7.30;;;2.00;;
69894;SDS011;57172;52.034;5.090;2022-10-18T16:48:28;7.57;;;2.00;;
69894;SDS011;57172;52.034;5.090;2022-10-18T16:50:56;10.03;;;1.97;;
69894;SDS011;57172;52.034;5.090;2022-10-18T16:53:23;8.10;;;1.90;;
69894;SDS011;57172;52.034;5.090;2022-10-18T16:55:52;7.07;;;2.00;;
69894;SDS011;57172;52.034;5.090;2022-10-18T16:58:27;5.93;;;1.92;;
69894;SDS011;57172;52.034;5.090;2022-10-18T17:00:56;7.72;;;2.10;;
69894;SDS011;57172;52.034;5.090;2022-10-18T17:03:24;7.20;;;1.83;;
69894;SDS011;57172;52.034;5.090;2022-10-18T17:05:52;7.50;;;1.90;;
69894;SDS011;57172;52.034;5.090;2022-10-18T17:08:20;9.18;;;1.92;;
69894;SDS011;57172;52.034;5.090;2022-10-18T17:10:50;7.22;;;1.88;;
69894;SDS011;57172;52.034;5.090;2022-10-18T17:13:19;9.80;;;1.90;;
69894;SDS011;57172;52.034;5.090;2022-10-18T17:15:47;6.07;;;1.90;;
69894;SDS011;57172;52.034;5.090;2022-10-18T17:18:16;8.50;;;2.20;;
69894;SDS011;57172;52.034;5.090;2022-10-18T17:20:47;8.73;;;2.22;;
69894;SDS011;57172;52.034;5.090;2022-10-18T17:23:14;11.38;;;2.55;;
69894;SDS011;57172;52.034;5.090;2022-10-18T17:25:42;7.57;;;2.33;;
69894;SDS011;57172;52.034;5.090;2022-10-18T17:28:29;7.47;;;2.33;;
69894;SDS011;57172;52.034;5.090;2022-10-18T17:30:56;8.73;;;2.60;;
69894;SDS011;57172;52.034;5.090;2022-10-18T17:33:23;7.00;;;2.50;;
69894;SDS011;57172;52.034;5.090;2022-10-18T17:35:50;8.15;;;2.35;;
69894;SDS011;57172;52.034;5.090;2022-10-18T17:38:17;9.43;;;2.88;;
69894;SDS011;57172;52.034;5.090;2022-10-18T17:40:44;8.00;;;2.90;;
69894;SDS011;57172;52.034;5.090;2022-10-18T17:43:10;8.80;;;2.72;;
69894;SDS011;57172;52.034;5.090;2022-10-18T17:45:48;8.82;;;2.67;;
69894;SDS011;57172;52.034;5.090;2022-10-18T17:48:20;7.28;;;2.55;;
69894;SDS011;57172;52.034;5.090;2022-10-18T17:50:47;8.20;;;2.70;;
69894;SDS011;57172;52.034;5.090;2022-10-18T17:53:14;8.43;;;2.37;;
69894;SDS011;57172;52.034;5.090;2022-10-18T17:55:43;9.30;;;2.60;;
69894;SDS011;57172;52.034;5.090;2022-10-18T17:58:10;10.27;;;2.47;;